Time;durP1;ratioP1;P1;durP2;ratioP2;P2;SDS_P1;SDS_P2;PMS_P1;PMS_P2;Temp;Humidity;BMP_temperature;BMP_pressure;BME280_temperature;BME280_humidity;BME280_pressure;Samples;Min_cycle;Max_cycle;Signal;HPM_P1;HPM_P2
2022/08/29 00:00:11;;;;;;;2.15;1.40;;;16.50;99.90;;;;;;5053501;28;20029;-70
2022/08/29 00:02:36;;;;;;;1.83;1.30;;;16.50;99.90;;;;;;5051934;28;20507;-71
2022/08/29 00:05:02;;;;;;;2.00;1.10;;;16.50;99.90;;;;;;5053027;28;20057;-71
2022/08/29 00:07:28;;;;;;;2.75;1.30;;;16.50;99.90;;;;;;5052995;28;20039;-71
2022/08/29 00:09:54;;;;;;;2.45;1.40;;;16.50;99.90;;;;;;5053344;28;20469;-71
2022/08/29 00:12:19;;;;;;;1.70;0.90;;;16.50;99.90;;;;;;5053284;28;20476;-71
2022/08/29 00:14:45;;;;;;;3.13;1.70;;;16.50;99.90;;;;;;5068355;28;20037;-71
2022/08/29 00:17:11;;;;;;;2.50;1.15;;;16.50;99.90;;;;;;5053107;28;20051;-71
2022/08/29 00:19:37;;;;;;;3.10;1.40;;;16.50;99.90;;;;;;5052812;28;20358;-71
2022/08/29 00:22:02;;;;;;;1.90;1.40;;;16.50;99.90;;;;;;5053276;28;20450;-71
2022/08/29 00:24:28;;;;;;;1.73;1.05;;;16.50;99.90;;;;;;5052955;28;20031;-71
2022/08/29 00:26:54;;;;;;;2.00;1.27;;;16.50;99.90;;;;;;5052835;28;20025;-71
2022/08/29 00:29:19;;;;;;;2.85;1.63;;;16.50;99.90;;;;;;5052876;28;20063;-71
2022/08/29 00:31:45;;;;;;;2.40;1.52;;;16.50;99.90;;;;;;5052860;28;20061;-71
2022/08/29 00:34:11;;;;;;;2.00;1.30;;;16.40;99.90;;;;;;5052943;28;20435;-71
2022/08/29 00:36:37;;;;;;;2.03;1.25;;;16.40;99.90;;;;;;5052748;28;20076;-71
2022/08/29 00:39:04;;;;;;;1.90;1.38;;;16.40;99.90;;;;;;5052716;28;20029;-71
2022/08/29 00:41:29;;;;;;;2.13;1.10;;;16.40;99.90;;;;;;5053059;28;20021;-71
2022/08/29 00:43:55;;;;;;;2.03;1.20;;;16.40;99.90;;;;;;5052763;28;20039;-71
2022/08/29 00:47:00;;;;;;;3.40;1.30;;;16.40;99.90;;;;;;5068518;28;20072;-71
2022/08/29 00:49:37;;;;;;;2.40;1.27;;;16.40;99.90;;;;;;5053458;28;20033;-71
2022/08/29 00:52:29;;;;;;;2.92;1.50;;;16.30;99.90;;;;;;5038425;28;20067;-71
2022/08/29 00:54:55;;;;;;;2.28;1.25;;;16.30;99.90;;;;;;5036372;28;20033;-71
2022/08/29 00:57:25;;;;;;;3.42;1.30;;;16.30;99.90;;;;;;5036199;28;20052;-71
2022/08/29 00:59:51;;;;;;;2.20;1.20;;;16.30;99.90;;;;;;5037088;28;20438;-71
2022/08/29 01:02:17;;;;;;;2.33;1.40;;;16.30;99.90;;;;;;5036216;28;20068;-71
2022/08/29 01:04:44;;;;;;;2.67;1.40;;;16.30;99.90;;;;;;5054835;28;20431;-71
2022/08/29 01:07:11;;;;;;;3.67;1.23;;;16.20;99.90;;;;;;5055793;28;20081;-72
2022/08/29 01:09:38;;;;;;;5.20;1.40;;;16.10;99.90;;;;;;5055714;28;20021;-71
2022/08/29 01:12:14;;;;;;;2.80;1.35;;;16.10;99.90;;;;;;5056010;28;20035;-71
2022/08/29 01:14:51;;;;;;;2.15;0.95;;;16.00;99.90;;;;;;5055938;28;20485;-71
2022/08/29 01:17:41;;;;;;;1.98;1.23;;;16.00;99.90;;;;;;5055983;28;20110;-71
2022/08/29 01:20:45;;;;;;;2.58;1.48;;;15.90;99.90;;;;;;5055728;28;20150;-71
2022/08/29 01:23:10;;;;;;;2.47;1.42;;;16.00;99.90;;;;;;5036451;28;20033;-71
2022/08/29 01:25:43;;;;;;;1.98;1.10;;;15.90;99.90;;;;;;5055731;28;20408;-71
2022/08/29 01:28:30;;;;;;;3.85;1.33;;;15.90;99.90;;;;;;5055932;28;20123;-71
2022/08/29 01:31:15;;;;;;;2.92;1.20;;;15.90;99.90;;;;;;5055939;28;20024;-71
2022/08/29 01:33:48;;;;;;;1.85;1.17;;;15.90;99.90;;;;;;5055578;28;20033;-71
2022/08/29 01:36:18;;;;;;;2.17;1.30;;;15.90;99.90;;;;;;5055287;28;20388;-71
2022/08/29 01:38:44;;;;;;;3.43;1.20;;;15.90;99.90;;;;;;5055506;28;20523;-71
2022/08/29 01:41:11;;;;;;;2.40;1.20;;;15.90;99.90;;;;;;5056218;28;20635;-71
2022/08/29 01:43:44;;;;;;;1.80;1.10;;;15.90;99.90;;;;;;5055649;28;20411;-71
2022/08/29 01:46:13;;;;;;;2.40;1.13;;;15.80;99.90;;;;;;5055662;28;20032;-71
2022/08/29 01:48:41;;;;;;;1.60;0.93;;;15.80;99.90;;;;;;5055267;28;20111;-71
2022/08/29 01:51:07;;;;;;;3.05;1.20;;;15.80;99.90;;;;;;5055033;28;20504;-71
2022/08/29 01:53:33;;;;;;;4.63;1.20;;;15.80;99.90;;;;;;5055502;28;20044;-71
2022/08/29 01:55:59;;;;;;;3.65;1.00;;;15.70;99.90;;;;;;5053859;28;20029;-71
2022/08/29 01:58:25;;;;;;;3.70;1.00;;;15.70;99.90;;;;;;5055153;28;20048;-71
2022/08/29 02:00:51;;;;;;;6.07;1.50;;;15.70;99.90;;;;;;5054213;28;20473;-71
2022/08/29 02:03:17;;;;;;;2.72;1.30;;;15.60;99.90;;;;;;5055578;28;20102;-71
2022/08/29 02:05:46;;;;;;;1.90;1.20;;;15.50;99.90;;;;;;5054914;28;20438;-71
2022/08/29 02:08:12;;;;;;;2.13;1.30;;;15.50;99.90;;;;;;5055134;28;20025;-71
2022/08/29 02:10:37;;;;;;;2.75;0.90;;;15.50;99.90;;;;;;5054870;28;20079;-71
2022/08/29 02:13:04;;;;;;;2.17;1.17;;;15.50;99.90;;;;;;5054727;28;20104;-71
2022/08/29 02:15:29;;;;;;;2.20;1.30;;;15.50;99.90;;;;;;5055129;28;20078;-71
2022/08/29 02:17:55;;;;;;;3.03;1.17;;;15.50;99.90;;;;;;5054600;28;20029;-71
2022/08/29 02:20:21;;;;;;;4.35;1.63;;;15.60;99.90;;;;;;5053485;28;20035;-71
2022/08/29 02:22:47;;;;;;;3.53;1.27;;;15.60;99.90;;;;;;5053753;28;20033;-71
2022/08/29 02:27:57;;;;;;;2.35;1.33;;;15.50;99.90;;;;;;5054788;28;20090;-71
2022/08/29 02:30:24;;;;;;;1.65;0.90;;;15.50;99.90;;;;;;5054497;28;20025;-71
2022/08/29 02:32:50;;;;;;;1.98;1.20;;;15.60;99.90;;;;;;5053388;28;20025;-71
2022/08/29 02:35:16;;;;;;;1.83;1.13;;;15.50;99.90;;;;;;5054345;28;20405;-71
2022/08/29 02:37:41;;;;;;;1.73;1.00;;;15.50;99.90;;;;;;5054423;28;20485;-71
2022/08/29 02:40:08;;;;;;;1.83;1.13;;;15.50;99.90;;;;;;5054316;28;20040;-71
2022/08/29 02:42:33;;;;;;;3.00;1.40;;;15.50;99.90;;;;;;5054866;28;20028;-71
2022/08/29 02:45:00;;;;;;;1.85;1.17;;;15.50;99.90;;;;;;5054516;28;20026;-71
2022/08/29 02:47:26;;;;;;;2.28;1.10;;;15.50;99.90;;;;;;5054674;28;20055;-71
2022/08/29 02:49:51;;;;;;;2.85;1.23;;;15.50;99.90;;;;;;5052718;28;20107;-71
2022/08/29 02:52:17;;;;;;;3.33;1.45;;;15.50;99.90;;;;;;5054132;28;20108;-71
2022/08/29 02:54:43;;;;;;;4.03;1.10;;;15.60;99.90;;;;;;5053987;28;20037;-71
2022/08/29 02:57:09;;;;;;;2.28;1.30;;;15.60;99.90;;;;;;5053843;28;20440;-71
2022/08/29 02:59:34;;;;;;;2.88;1.02;;;15.60;99.90;;;;;;5054268;28;20084;-71
2022/08/29 03:02:00;;;;;;;2.00;1.10;;;15.60;99.90;;;;;;5052680;28;20111;-71
2022/08/29 03:04:26;;;;;;;1.50;0.80;;;15.60;99.90;;;;;;5053775;28;20032;-71
2022/08/29 03:06:52;;;;;;;1.90;1.20;;;15.60;99.90;;;;;;5052573;28;20033;-71
2022/08/29 03:09:18;;;;;;;1.73;1.17;;;15.60;99.90;;;;;;5052634;28;20028;-71
2022/08/29 03:11:44;;;;;;;3.20;1.27;;;15.60;99.90;;;;;;5053682;28;20059;-71
2022/08/29 03:14:09;;;;;;;2.13;1.38;;;15.60;99.90;;;;;;5054185;28;20563;-71
2022/08/29 03:16:35;;;;;;;4.75;2.00;;;15.60;99.90;;;;;;5053926;28;20068;-71
2022/08/29 03:19:01;;;;;;;3.95;2.15;;;15.60;99.90;;;;;;5043967;28;20117;-71
2022/08/29 03:21:26;;;;;;;5.28;1.95;;;15.60;99.90;;;;;;5033974;28;20030;-71
2022/08/29 03:23:54;;;;;;;2.78;1.65;;;15.60;99.90;;;;;;5033920;28;20032;-71
2022/08/29 03:26:22;;;;;;;4.18;1.63;;;15.50;99.90;;;;;;5033623;28;20056;-71
2022/08/29 03:28:48;;;;;;;2.15;1.45;;;15.50;99.90;;;;;;5033541;28;20026;-71
2022/08/29 03:31:14;;;;;;;4.95;1.90;;;15.40;99.90;;;;;;5033543;28;20112;-71
2022/08/29 03:33:40;;;;;;;2.05;1.50;;;15.30;99.90;;;;;;5045333;28;20028;-71
2022/08/29 03:36:08;;;;;;;2.40;1.30;;;15.20;99.90;;;;;;5053589;28;20027;-71
2022/08/29 03:38:36;;;;;;;2.83;1.60;;;15.20;99.90;;;;;;5053361;28;20407;-71
2022/08/29 03:41:03;;;;;;;1.63;1.10;;;15.20;99.90;;;;;;5053308;28;20021;-71
2022/08/29 03:43:28;;;;;;;3.42;1.48;;;15.10;99.90;;;;;;5053576;28;20444;-71
2022/08/29 03:45:54;;;;;;;3.95;1.33;;;15.20;99.90;;;;;;5053817;28;20104;-71
2022/08/29 03:48:20;;;;;;;2.10;1.35;;;15.10;99.90;;;;;;5035704;28;20033;-71
2022/08/29 03:50:45;;;;;;;1.92;1.23;;;15.20;99.90;;;;;;5053227;28;20029;-71
2022/08/29 03:53:11;;;;;;;2.92;1.70;;;15.20;99.90;;;;;;5053794;28;20025;-71
2022/08/29 03:55:37;;;;;;;2.83;1.40;;;15.20;99.90;;;;;;5053222;28;20029;-71
2022/08/29 03:58:03;;;;;;;1.95;1.25;;;15.20;99.90;;;;;;5051793;28;20099;-71
2022/08/29 04:00:29;;;;;;;2.05;1.23;;;15.10;99.90;;;;;;5053167;28;20469;-71
2022/08/29 04:02:56;;;;;;;3.38;1.40;;;15.10;99.90;;;;;;5053211;28;20065;-71
2022/08/29 04:05:22;;;;;;;3.10;1.52;;;15.20;99.90;;;;;;5053121;28;20032;-71
2022/08/29 04:07:54;;;;;;;1.83;1.23;;;15.10;99.90;;;;;;5053074;28;20469;-72
2022/08/29 04:10:22;;;;;;;1.80;1.13;;;15.20;99.90;;;;;;5053418;28;20025;-72
2022/08/29 04:12:48;;;;;;;2.15;1.33;;;15.10;99.90;;;;;;5053047;28;20029;-71
2022/08/29 04:15:15;;;;;;;2.03;1.30;;;15.20;99.90;;;;;;5052979;28;20412;-71
2022/08/29 04:17:41;;;;;;;2.67;1.27;;;15.20;99.90;;;;;;5052697;28;20051;-71
2022/08/29 04:20:08;;;;;;;2.30;1.10;;;15.20;99.90;;;;;;5053269;28;20075;-71
2022/08/29 04:22:36;;;;;;;2.55;1.27;;;15.20;99.90;;;;;;5053274;28;20480;-71
2022/08/29 04:25:04;;;;;;;2.08;1.20;;;15.20;99.90;;;;;;5057080;28;20362;-71
2022/08/29 04:27:30;;;;;;;2.40;1.40;;;15.20;99.90;;;;;;5056758;28;20466;-71
2022/08/29 04:29:56;;;;;;;1.88;1.38;;;15.30;99.90;;;;;;5056815;28;20117;-71
2022/08/29 04:32:21;;;;;;;2.38;1.33;;;15.30;99.90;;;;;;5056991;28;20061;-71
2022/08/29 04:34:47;;;;;;;3.88;1.45;;;15.30;99.90;;;;;;5057000;28;20035;-71
2022/08/29 04:37:13;;;;;;;4.57;1.35;;;15.30;99.90;;;;;;5056782;28;20051;-71
2022/08/29 04:39:39;;;;;;;1.90;1.23;;;15.30;99.90;;;;;;5056900;28;20440;-71
2022/08/29 04:42:05;;;;;;;1.73;0.98;;;15.20;99.90;;;;;;5056614;28;20082;-71
2022/08/29 04:44:31;;;;;;;1.83;1.13;;;15.20;99.90;;;;;;5056550;28;20362;-71
2022/08/29 04:46:57;;;;;;;2.45;1.40;;;15.20;99.90;;;;;;5056199;28;20063;-71
2022/08/29 04:49:23;;;;;;;1.80;1.27;;;15.20;99.90;;;;;;5056164;28;20040;-72
2022/08/29 04:51:51;;;;;;;2.75;1.50;;;15.20;99.90;;;;;;5056712;28;20083;-71
2022/08/29 04:54:17;;;;;;;4.78;1.70;;;15.20;99.90;;;;;;5056326;28;20078;-71
2022/08/29 04:56:42;;;;;;;2.63;1.40;;;15.20;99.90;;;;;;5056134;28;20112;-72
2022/08/29 04:59:08;;;;;;;2.28;1.38;;;15.20;99.90;;;;;;5056268;28;20163;-71
2022/08/29 05:01:34;;;;;;;2.03;1.30;;;15.20;99.90;;;;;;5056369;28;20029;-71
2022/08/29 05:03:59;;;;;;;2.88;1.40;;;15.30;99.90;;;;;;5056169;28;20491;-71
2022/08/29 05:06:25;;;;;;;2.33;1.38;;;15.30;99.90;;;;;;5056097;28;20033;-71
2022/08/29 05:08:52;;;;;;;2.78;1.00;;;15.30;99.90;;;;;;5056030;28;20035;-71
2022/08/29 05:11:19;;;;;;;2.38;1.33;;;15.30;99.90;;;;;;5056070;28;20052;-71
2022/08/29 05:13:46;;;;;;;2.22;1.13;;;15.30;99.90;;;;;;5055862;28;20037;-71
2022/08/29 05:16:14;;;;;;;3.20;1.48;;;15.40;99.90;;;;;;5055614;28;20120;-71
2022/08/29 05:18:43;;;;;;;2.05;1.23;;;15.40;99.90;;;;;;5055058;28;20389;-72
2022/08/29 05:21:10;;;;;;;2.40;1.50;;;15.40;99.90;;;;;;5055492;28;20021;-71
2022/08/29 05:23:35;;;;;;;4.05;1.50;;;15.40;99.90;;;;;;5054529;28;20060;-72
2022/08/29 05:26:03;;;;;;;2.95;1.58;;;15.40;99.90;;;;;;5055556;28;20445;-71
2022/08/29 05:28:32;;;;;;;2.72;1.25;;;15.40;99.90;;;;;;5054811;28;20025;-72
2022/08/29 05:30:58;;;;;;;3.25;1.55;;;15.40;99.90;;;;;;5055340;28;20024;-71
2022/08/29 05:33:26;;;;;;;3.05;1.50;;;15.40;99.90;;;;;;5054350;28;20031;-71
2022/08/29 05:35:51;;;;;;;2.22;1.27;;;15.40;99.90;;;;;;5054247;28;20036;-71
2022/08/29 05:38:17;;;;;;;3.38;1.60;;;15.40;99.90;;;;;;5055419;28;20025;-71
2022/08/29 05:40:43;;;;;;;5.10;1.73;;;15.40;99.90;;;;;;5055198;28;20108;-71
2022/08/29 05:43:09;;;;;;;2.42;1.63;;;15.40;99.90;;;;;;5055427;28;20025;-71
2022/08/29 05:45:40;;;;;;;4.15;2.00;;;15.40;99.90;;;;;;5055711;28;20052;-71
2022/08/29 05:48:08;;;;;;;3.22;1.60;;;15.40;99.90;;;;;;5055340;28;20021;-71
2022/08/29 05:50:38;;;;;;;2.85;1.75;;;15.40;99.90;;;;;;5055818;28;20115;-71
2022/08/29 05:53:04;;;;;;;2.60;1.70;;;15.30;99.90;;;;;;5055298;28;20071;-71
2022/08/29 05:55:30;;;;;;;3.65;1.60;;;15.30;99.90;;;;;;5055525;28;20489;-72
2022/08/29 05:57:55;;;;;;;2.60;1.40;;;15.30;99.90;;;;;;5054985;28;20120;-73
2022/08/29 06:00:21;;;;;;;3.15;1.60;;;15.40;99.90;;;;;;5055423;28;20492;-72
2022/08/29 06:02:47;;;;;;;3.88;1.45;;;15.40;99.90;;;;;;5055053;28;20162;-73
2022/08/29 06:05:12;;;;;;;2.10;1.40;;;15.50;99.90;;;;;;5053874;28;20025;-72
2022/08/29 06:07:38;;;;;;;2.17;1.40;;;15.50;99.90;;;;;;5053700;28;20037;-72
2022/08/29 06:10:07;;;;;;;4.13;1.60;;;15.60;99.90;;;;;;5053866;28;20428;-73
2022/08/29 06:12:33;;;;;;;1.83;1.23;;;15.60;99.90;;;;;;5055047;28;20371;-72
2022/08/29 06:14:59;;;;;;;3.83;1.70;;;15.70;99.90;;;;;;5054734;28;20071;-73
2022/08/29 06:17:27;;;;;;;2.67;1.60;;;15.70;99.90;;;;;;5054630;28;20052;-73
2022/08/29 06:19:53;;;;;;;1.90;1.25;;;15.80;99.90;;;;;;5053591;28;20473;-73
2022/08/29 06:22:21;;;;;;;2.08;1.33;;;15.90;99.90;;;;;;5054920;28;20040;-73
2022/08/29 06:24:47;;;;;;;1.70;1.30;;;15.90;99.90;;;;;;5054346;28;20053;-73
2022/08/29 06:27:13;;;;;;;2.10;1.30;;;16.00;99.90;;;;;;5054649;28;20067;-73
2022/08/29 06:29:39;;;;;;;2.92;1.55;;;16.00;99.90;;;;;;5053275;28;20063;-73
2022/08/29 06:32:04;;;;;;;3.22;1.60;;;16.10;99.90;;;;;;5055050;28;20052;-73
2022/08/29 06:34:30;;;;;;;4.50;1.70;;;16.10;99.90;;;;;;5054490;28;20524;-73
2022/08/29 06:36:56;;;;;;;6.65;1.92;;;16.10;99.90;;;;;;5054734;28;20420;-73
2022/08/29 06:39:22;;;;;;;3.25;1.60;;;16.20;99.90;;;;;;5054202;28;20370;-73
2022/08/29 06:41:47;;;;;;;2.33;1.25;;;16.20;99.90;;;;;;5054306;28;20029;-73
2022/08/29 06:44:13;;;;;;;2.30;1.27;;;16.20;99.90;;;;;;5054631;28;20515;-73
2022/08/29 06:46:42;;;;;;;4.53;1.73;;;16.30;99.90;;;;;;5053772;28;20066;-73
2022/08/29 06:49:11;;;;;;;2.30;1.60;;;16.30;99.90;;;;;;5054182;28;20024;-73
2022/08/29 06:51:39;;;;;;;5.00;1.70;;;16.30;99.90;;;;;;5054143;28;20503;-73
2022/08/29 06:54:07;;;;;;;3.92;1.95;;;16.40;99.90;;;;;;5053800;28;20191;-74
2022/08/29 06:56:34;;;;;;;3.05;1.90;;;16.50;99.90;;;;;;5054250;28;20040;-74
2022/08/29 06:59:00;;;;;;;2.90;1.70;;;16.60;99.90;;;;;;5054226;28;20100;-74
2022/08/29 07:01:25;;;;;;;5.65;2.08;;;16.60;99.90;;;;;;5052681;28;20148;-74
2022/08/29 07:03:53;;;;;;;3.15;2.00;;;16.80;99.90;;;;;;5053918;28;20056;-74
2022/08/29 07:06:19;;;;;;;2.90;1.73;;;16.80;99.90;;;;;;5053886;28;20071;-74
2022/08/29 07:08:45;;;;;;;3.08;1.55;;;16.90;99.90;;;;;;5052310;28;20076;-74
2022/08/29 07:11:11;;;;;;;3.42;1.58;;;17.00;99.90;;;;;;5053804;28;20060;-74
2022/08/29 07:13:38;;;;;;;4.30;1.70;;;17.10;99.90;;;;;;5053638;28;20118;-75
2022/08/29 07:16:08;;;;;;;2.17;1.55;;;17.20;99.90;;;;;;5053835;28;20416;-75
2022/08/29 07:18:34;;;;;;;2.45;1.65;;;17.20;99.90;;;;;;5053627;28;20393;-74
2022/08/29 07:21:04;;;;;;;3.55;1.92;;;17.30;99.90;;;;;;5053929;28;20045;-74
2022/08/29 07:23:30;;;;;;;5.20;2.05;;;17.30;99.90;;;;;;5053350;28;20029;-75
2022/08/29 07:26:24;;;;;;;4.20;1.90;;;17.40;99.90;;;;;;5053596;28;20555;-75
2022/08/29 07:28:52;;;;;;;4.70;1.90;;;17.40;99.90;;;;;;5053516;28;20104;-75
2022/08/29 07:31:18;;;;;;;2.60;1.80;;;17.50;99.90;;;;;;5053774;28;20440;-75
2022/08/29 07:33:44;;;;;;;3.17;1.80;;;17.60;99.90;;;;;;5053766;28;20100;-75
2022/08/29 07:36:11;;;;;;;3.83;1.98;;;17.60;99.90;;;;;;5053454;28;20379;-73
2022/08/29 07:38:38;;;;;;;3.05;1.98;;;17.60;99.90;;;;;;5053284;28;20399;-74
2022/08/29 07:41:06;;;;;;;2.80;1.90;;;17.70;99.90;;;;;;5053631;28;20036;-75
2022/08/29 07:43:33;;;;;;;3.60;2.42;;;17.70;99.90;;;;;;5053297;28;20027;-74
2022/08/29 07:46:04;;;;;;;4.05;2.22;;;17.70;99.90;;;;;;5053284;28;20032;-75
2022/08/29 07:48:29;;;;;;;3.50;2.40;;;17.80;99.90;;;;;;5053273;28;20020;-75
2022/08/29 07:50:55;;;;;;;2.92;2.05;;;17.80;99.90;;;;;;5053018;28;20029;-74
2022/08/29 07:53:21;;;;;;;3.05;2.03;;;17.90;99.90;;;;;;5053267;28;20388;-75
2022/08/29 07:55:46;;;;;;;3.10;2.28;;;17.90;99.90;;;;;;5053216;28;20104;-75
2022/08/29 07:58:12;;;;;;;3.08;2.17;;;17.90;99.90;;;;;;5053965;28;20055;-75
2022/08/29 08:00:38;;;;;;;2.78;2.05;;;18.00;99.90;;;;;;5057346;28;20025;-75
2022/08/29 08:03:04;;;;;;;2.97;1.85;;;18.10;99.90;;;;;;5056919;28;20071;-75
2022/08/29 08:05:29;;;;;;;4.22;2.67;;;18.10;99.90;;;;;;5057322;28;20523;-74
2022/08/29 08:07:55;;;;;;;4.55;2.20;;;18.20;99.90;;;;;;5057143;28;20036;-75
2022/08/29 08:10:21;;;;;;;2.80;2.05;;;18.10;99.90;;;;;;5057187;28;20040;-75
2022/08/29 08:12:48;;;;;;;3.22;2.17;;;18.10;99.90;;;;;;5057142;28;20029;-75
2022/08/29 08:15:15;;;;;;;3.45;2.53;;;18.20;99.90;;;;;;5057042;28;20067;-75
2022/08/29 08:17:41;;;;;;;3.20;2.13;;;18.20;99.90;;;;;;5057429;28;20025;-73
2022/08/29 08:20:08;;;;;;;3.45;2.15;;;18.20;99.90;;;;;;5057186;28;20021;-78
2022/08/29 08:22:34;;;;;;;3.30;2.35;;;18.20;99.90;;;;;;5060768;28;20057;-78
2022/08/29 08:25:04;;;;;;;3.38;2.45;;;18.20;99.90;;;;;;5074978;28;20021;-78
2022/08/29 08:27:31;;;;;;;3.35;2.30;;;18.30;99.90;;;;;;5073729;28;20032;-80
2022/08/29 08:29:57;;;;;;;4.18;2.58;;;18.40;99.90;;;;;;5058574;28;20037;-79
2022/08/29 08:32:23;;;;;;;5.18;2.63;;;18.50;99.90;;;;;;5058112;28;20025;-80
2022/08/29 08:34:48;;;;;;;2.85;2.20;;;18.70;99.90;;;;;;5056007;28;20484;-80
2022/08/29 08:37:14;;;;;;;4.53;2.30;;;18.80;99.90;;;;;;5040787;28;20041;-80
2022/08/29 08:39:40;;;;;;;3.88;2.80;;;18.90;99.90;;;;;;5037708;28;20030;-80
2022/08/29 08:42:41;;;;;;;3.33;2.13;;;19.00;99.90;;;;;;5037676;28;20032;-80
2022/08/29 08:45:25;;;;;;;3.22;2.47;;;19.10;99.90;;;;;;5036174;28;20025;-79
2022/08/29 08:48:02;;;;;;;3.10;2.10;;;19.20;99.90;;;;;;5036887;28;20108;-80
2022/08/29 08:50:43;;;;;;;3.17;2.38;;;19.20;99.90;;;;;;5049828;28;20029;-79
2022/08/29 08:53:31;;;;;;;5.85;2.47;;;19.30;99.90;;;;;;5056932;28;20048;-80
2022/08/29 08:56:00;;;;;;;4.00;3.00;;;19.40;99.90;;;;;;5056813;28;20104;-80
2022/08/29 08:59:00;;;;;;;3.45;2.60;;;19.40;99.90;;;;;;5057211;28;20079;-81
2022/08/29 09:01:31;;;;;;;4.43;2.67;;;19.50;99.90;;;;;;5056241;28;20047;-81
2022/08/29 09:04:16;;;;;;;4.68;3.53;;;19.60;99.90;;;;;;5056388;28;20029;-80
2022/08/29 09:06:52;;;;;;;4.07;3.00;;;19.70;99.90;;;;;;5055736;28;20064;-81
2022/08/29 09:09:50;;;;;;;3.42;2.67;;;19.80;99.90;;;;;;5055511;28;20055;-81
2022/08/29 09:12:44;;;;;;;5.60;3.72;;;19.90;99.90;;;;;;5035928;28;20406;-82
2022/08/29 09:15:14;;;;;;;3.78;2.83;;;20.00;99.90;;;;;;5035744;28;20510;-81
2022/08/29 09:17:59;;;;;;;3.67;2.50;;;20.20;99.90;;;;;;5036229;28;20021;-83
2022/08/29 09:20:30;;;;;;;3.78;2.90;;;20.20;99.90;;;;;;5051030;28;20026;-77
2022/08/29 09:23:00;;;;;;;3.90;2.92;;;20.40;99.90;;;;;;5047626;28;20025;-78
2022/08/29 09:25:28;;;;;;;4.50;3.28;;;20.50;99.90;;;;;;5056023;28;20025;-79
2022/08/29 09:27:54;;;;;;;3.47;2.90;;;20.50;99.90;;;;;;5036306;28;20049;-79
2022/08/29 09:30:23;;;;;;;4.43;2.97;;;20.70;99.90;;;;;;5043536;28;20499;-81
2022/08/29 09:32:53;;;;;;;4.22;2.90;;;20.80;99.90;;;;;;5055702;28;20025;-80
2022/08/29 09:35:26;;;;;;;4.75;2.70;;;20.90;99.90;;;;;;5055504;28;20024;-80
2022/08/29 09:37:58;;;;;;;4.30;3.20;;;21.00;99.90;;;;;;5055530;28;20025;-78
2022/08/29 09:40:39;;;;;;;4.20;2.58;;;21.10;99.90;;;;;;5056454;28;20067;-79
2022/08/29 09:43:06;;;;;;;3.03;2.60;;;21.20;99.90;;;;;;5055772;28;20021;-81
2022/08/29 09:45:32;;;;;;;5.15;2.90;;;21.30;99.90;;;;;;5055967;28;20473;-80
2022/08/29 09:48:09;;;;;;;3.85;2.60;;;21.50;99.90;;;;;;5056273;28;20077;-80
2022/08/29 09:50:34;;;;;;;4.20;3.05;;;21.60;99.90;;;;;;5062391;28;20028;-79
2022/08/29 09:53:03;;;;;;;4.30;3.05;;;21.70;99.90;;;;;;5054567;28;20029;-80
2022/08/29 09:55:41;;;;;;;5.78;3.30;;;21.80;99.90;;;;;;5056019;28;20071;-80
2022/08/29 09:58:29;;;;;;;5.88;3.33;;;21.80;99.90;;;;;;5054257;28;20056;-81
2022/08/29 10:01:10;;;;;;;5.65;3.42;;;21.80;99.90;;;;;;5055770;28;20021;-80
2022/08/29 10:03:53;;;;;;;6.43;3.63;;;21.90;99.90;;;;;;5055984;28;20033;-80
2022/08/29 10:06:28;;;;;;;4.60;3.10;;;22.00;99.90;;;;;;5071265;28;20025;-80
2022/08/29 10:09:06;;;;;;;4.50;3.30;;;22.10;99.90;;;;;;5055479;28;20021;-77
2022/08/29 10:11:48;;;;;;;5.30;3.53;;;22.20;99.90;;;;;;5055239;28;20029;-72
2022/08/29 10:14:47;;;;;;;5.50;3.22;;;22.40;99.90;;;;;;5054773;28;20086;-72
2022/08/29 10:20:05;;;;;;;;;;;22.40;99.90;;;;;;5053974;28;20031;-74
2022/08/29 10:22:40;;;;;;;5.82;3.08;;;22.50;99.90;;;;;;5035999;28;20287;-74
2022/08/29 10:25:17;;;;;;;4.32;3.30;;;22.60;99.90;;;;;;5055252;28;20024;-73
2022/08/29 10:28:05;;;;;;;5.13;3.20;;;22.70;99.90;;;;;;5054695;28;20033;-74
2022/08/29 10:30:50;;;;;;;5.45;4.03;;;22.80;99.90;;;;;;5055338;28;20377;-74
2022/08/29 10:33:25;;;;;;;5.53;3.90;;;22.80;99.90;;;;;;5054565;28;20025;-74
2022/08/29 10:36:09;;;;;;;5.57;4.05;;;22.90;99.90;;;;;;5051895;28;20029;-74
2022/08/29 10:38:38;;;;;;;3.85;3.13;;;23.00;99.90;;;;;;5034418;28;20440;-73
2022/08/29 10:41:23;;;;;;;7.47;5.32;;;23.10;99.90;;;;;;5034447;28;20037;-73
2022/08/29 10:43:52;;;;;;;6.47;5.03;;;23.20;99.60;;;;;;5034672;28;20024;-73
2022/08/29 10:46:20;;;;;;;8.82;4.13;;;23.20;99.90;;;;;;5034286;28;20048;-73
2022/08/29 10:49:11;;;;;;;4.53;3.85;;;23.30;99.90;;;;;;5042964;28;20028;-73
2022/08/29 10:51:53;;;;;;;6.03;3.83;;;23.40;98.90;;;;;;5054045;28;20416;-74
2022/08/29 10:54:42;;;;;;;4.82;4.00;;;23.50;98.80;;;;;;5054372;28;20029;-73
2022/08/29 10:57:08;;;;;;;6.20;3.47;;;23.60;99.90;;;;;;5053485;28;20040;-74
2022/08/29 11:00:01;;;;;;;5.00;3.92;;;23.70;99.20;;;;;;5054350;28;20104;-73
2022/08/29 11:02:34;;;;;;;5.00;3.38;;;23.70;99.20;;;;;;5054290;28;20017;-74
2022/08/29 11:05:09;;;;;;;5.35;3.85;;;23.70;98.00;;;;;;5054128;28;20361;-73
2022/08/29 11:08:08;;;;;;;5.03;3.72;;;23.70;98.50;;;;;;5054497;28;20350;-73
2022/08/29 11:10:42;;;;;;;4.75;3.70;;;23.80;99.10;;;;;;5053538;28;20477;-74
2022/08/29 11:13:20;;;;;;;5.40;4.70;;;23.90;99.70;;;;;;5053800;28;20427;-73
2022/08/29 11:16:01;;;;;;;5.00;4.50;;;24.00;98.00;;;;;;5053741;28;20558;-73
2022/08/29 11:18:39;;;;;;;5.65;3.75;;;24.10;98.00;;;;;;5052994;28;20031;-74
2022/08/29 11:21:36;;;;;;;5.63;4.40;;;24.20;98.70;;;;;;5052869;28;20366;-74
2022/08/29 11:24:03;;;;;;;9.38;4.30;;;24.40;99.00;;;;;;5052635;28;20033;-74
2022/08/29 11:26:44;;;;;;;5.25;4.43;;;24.50;97.80;;;;;;5052562;28;20354;-74
2022/08/29 11:29:25;;;;;;;7.55;4.70;;;24.60;97.60;;;;;;5052886;28;20370;-75
2022/08/29 11:32:20;;;;;;;7.97;4.40;;;24.70;97.10;;;;;;5053795;28;20024;-74
2022/08/29 11:35:19;;;;;;;6.60;3.92;;;24.80;97.10;;;;;;5052811;28;20039;-74
2022/08/29 11:38:22;;;;;;;5.57;3.35;;;25.00;96.10;;;;;;5051081;28;20028;-74
2022/08/29 11:40:48;;;;;;;5.05;3.95;;;25.10;96.70;;;;;;5049846;28;20029;-74
2022/08/29 11:43:23;;;;;;;5.63;4.03;;;25.30;96.60;;;;;;5037591;28;20048;-74
2022/08/29 11:46:02;;;;;;;7.30;3.63;;;25.40;95.80;;;;;;5033259;28;20096;-74
2022/08/29 11:48:51;;;;;;;4.13;2.83;;;25.50;94.70;;;;;;5051599;28;20370;-74
2022/08/29 11:51:28;;;;;;;4.93;3.00;;;25.70;96.00;;;;;;5043382;28;20038;-74
2022/08/29 11:53:54;;;;;;;3.75;3.05;;;25.80;95.00;;;;;;5033507;28;20478;-74
2022/08/29 11:56:26;;;;;;;4.78;3.67;;;25.90;93.40;;;;;;5032034;28;20071;-74
2022/08/29 11:58:57;;;;;;;5.28;3.55;;;25.90;92.20;;;;;;5033202;28;20013;-74
2022/08/29 12:01:35;;;;;;;3.70;2.92;;;25.80;93.20;;;;;;5032463;28;20389;-74
2022/08/29 12:04:05;;;;;;;4.75;2.53;;;25.80;93.20;;;;;;5040226;28;20028;-74
2022/08/29 12:06:55;;;;;;;3.88;2.80;;;25.90;91.60;;;;;;5053235;28;20067;-74
2022/08/29 12:09:48;;;;;;;5.13;2.57;;;25.90;93.10;;;;;;5053474;28;20033;-74
2022/08/29 12:12:18;;;;;;;2.97;2.28;;;26.00;92.30;;;;;;5053416;28;20252;-75
2022/08/29 12:14:47;;;;;;;3.67;2.15;;;26.00;91.30;;;;;;5052891;28;20103;-75
2022/08/29 12:17:15;;;;;;;3.03;2.22;;;26.00;91.30;;;;;;5053159;28;20033;-75
2022/08/29 12:19:55;;;;;;;2.80;2.42;;;26.10;92.30;;;;;;5053362;28;20025;-77
2022/08/29 12:22:42;;;;;;;3.53;2.40;;;26.20;90.90;;;;;;5045016;28;20109;-77
2022/08/29 12:25:26;;;;;;;5.45;2.60;;;26.20;90.70;;;;;;5032755;28;20025;-77
2022/08/29 12:27:59;;;;;;;3.30;2.50;;;26.40;91.20;;;;;;5047930;28;20065;-75
2022/08/29 12:30:25;;;;;;;3.80;2.35;;;26.40;90.20;;;;;;5049508;28;20397;-75
2022/08/29 12:32:55;;;;;;;3.58;2.30;;;26.50;92.00;;;;;;5050717;28;20474;-74
2022/08/29 12:35:47;;;;;;;3.15;2.13;;;26.70;91.70;;;;;;5051942;28;20028;-74
2022/08/29 12:38:44;;;;;;;3.88;2.72;;;26.80;88.90;;;;;;5049924;28;20037;-74
2022/08/29 12:41:33;;;;;;;3.08;2.25;;;27.00;91.00;;;;;;5050457;28;20485;-75
2022/08/29 12:44:04;;;;;;;2.80;2.20;;;27.10;89.10;;;;;;5035521;28;20400;-75
2022/08/29 12:46:32;;;;;;;;;;;27.20;88.70;;;;;;5044584;28;20362;-74
2022/08/29 12:49:05;;;;;;;4.53;2.25;;;27.10;86.40;;;;;;5053882;28;19912;-75
2022/08/29 12:51:39;;;;;;;3.15;2.20;;;27.10;88.10;;;;;;5054139;28;20082;-74
2022/08/29 12:54:06;;;;;;;6.35;2.25;;;27.10;85.80;;;;;;5054082;28;20021;-75
2022/08/29 12:56:33;;;;;;;3.25;1.83;;;27.10;84.60;;;;;;5054946;28;20036;-73
2022/08/29 12:59:02;;;;;;;3.13;1.90;;;27.10;82.30;;;;;;5056783;28;20055;-74
2022/08/29 13:01:37;;;;;;;5.18;2.05;;;27.10;83.10;;;;;;5056284;28;20021;-73
2022/08/29 13:04:11;;;;;;;3.13;2.15;;;27.10;82.40;;;;;;5056286;28;20029;-73
2022/08/29 13:06:50;;;;;;;4.28;2.20;;;27.10;79.60;;;;;;5056472;28;20025;-72
2022/08/29 13:09:40;;;;;;;2.65;2.05;;;27.00;79.70;;;;;;5056178;28;20078;-72
2022/08/29 13:12:25;;;;;;;2.97;2.00;;;26.90;82.10;;;;;;5056705;28;20083;-72